Detall de PIREP

Printer-friendly versionPDF version

[2015/12/24 14:38:00]
Flight IATA:CT1004
Pilot Number:012
Company ICAO:CAT
Aircraft Type:B752/E
PAX:169
Aircraft Registration:PAX
Departing Airport: LIEA
Destination Airport: LDSP
Alternate Airport:LDDU
Online: VATSIM
Route:MINKA UL5 VAPUP
Flight Level:F330
No Slew and time accel
No pause
Crash detect
Detect pilot in Cockpit between each 30 and 45 minutes
14:38 Zero fuel Weight: 180267 Lbs, Fuel Weight: 21565 Lbs
14:38 VATSIM:LIEA 241420Z 21007KT CAVOK 16/10 Q1031
14:38 VATSIM:LDSP 241400Z 28005KT 240V320 CAVOK 16/08 Q1031 NOSIG
14:38 X-MAS CHARTER
14:39 Parking Brakes off
14:45 Take-off
14:45 Take off Weight: 200893 Lbs
14:45 Wind: 208º @ 007 Knots Heading: 204º
14:45 POS N40º 37´ 53´´ E008º 17´ 25´´
14:45 Gear Up: 186 Knots
14:45 Flaps:2 at 186 Knots
14:45 Flaps:1 at 208 Knots
14:47 Flaps:0 at 175 Knots
14:58 TOC
14:58 Fuel Weight: 16546 Lb
15:00 Wind:253º@038 Knots Heading: 067º Ground Speed: 504 Knots Altitude 33526 ft
15:15 Wind:267º@034 Knots Heading: 068º Ground Speed: 497 Knots Altitude 33582 ft
15:18 TOD
15:18 Fuel Weight: 13836 Lb
15:30 Wind:309º@021 Knots Heading: 055º Ground Speed: 358 Knots Altitude 14599 ft
15:45 Wind:275º@009 Knots Heading: 059º Ground Speed: 298 Knots Altitude 4990 ft
15:49 Flaps:1 at 212 Knots
15:50 Flaps:2 at 203 Knots
15:50 Gear Down: 201 Knots
15:50 Flaps:3 at 182 Knots
15:50 Flaps:4 at 163 Knots
15:51 Flaps:5 at 163 Knots
15:51 Flaps:6 at 160 Knots
15:52 TouchDown:Rate -244 ft/min Speed: 133 Knots
15:53 Flaps:5 at 57 Knots
15:53 Flaps:1 at 55 Knots
15:53 VATSIM:LDSP 241530Z VRB03KT CAVOK 13/08 Q1031 NOSIG
15:53 Land
15:53 Wind:278º@003 Knots
15:53 Heading: 048º
15:53 Flight Duration: 01:08
15:53 Landing Weight: 191042 Lbs
15:53 POS N43º 32´ 19´´ E016º 17´ 51´´
15:54 Parking brakes on
15:54 Block to Block Duration: 01:15
15:54 Final Fuel: 10617 Lbls
15:54 Spent Fuel: 10947 Lbls
15:54 Flight Length: 420 NM
15:54 TOD Land Length: 181 NM

Exportar CSV

Powered by Drupal - Modified by Danger4k